Time;durP1;ratioP1;P1;durP2;ratioP2;P2;SDS_P1;SDS_P2;PMS_P1;PMS_P2;Temp;Humidity;BMP_temperature;BMP_pressure;BME280_temperature;BME280_humidity;BME280_pressure;Samples;Min_cycle;Max_cycle;Signal;HPM_P1;HPM_P2
2021/03/08 00:01:24;;;;;;;23.62;11.53;;;;;;;0.70;73.12;100697.90;1740380;81;21649;-71
2021/03/08 00:03:50;;;;;;;18.32;9.95;;;;;;;0.69;73.21;100698.83;1740285;82;22054;-71
2021/03/08 00:06:17;;;;;;;20.27;9.50;;;;;;;0.68;73.32;100697.14;1740155;81;21168;-71
2021/03/08 00:08:43;;;;;;;20.20;11.48;;;;;;;0.68;73.40;100692.73;1740191;82;21175;-71
2021/03/08 00:11:09;;;;;;;26.00;12.82;;;;;;;0.70;73.50;100703.14;1740241;81;21168;-71
2021/03/08 00:13:36;;;;;;;35.43;16.12;;;;;;;0.69;73.58;100706.70;1740353;82;21180;-71
2021/03/08 00:16:02;;;;;;;27.67;15.18;;;;;;;0.68;73.67;100702.39;1740345;82;22154;-71
2021/03/08 00:18:29;;;;;;;40.75;15.55;;;;;;;0.67;73.73;100705.97;1740192;82;21181;-71
2021/03/08 00:20:55;;;;;;;29.12;13.65;;;;;;;0.67;73.83;100705.97;1740119;82;21183;-71
2021/03/08 00:23:21;;;;;;;32.50;14.10;;;;;;;0.67;73.91;100705.97;1739925;81;21272;-71
2021/03/08 00:25:48;;;;;;;19.98;11.28;;;;;;;0.69;73.98;100706.23;1739920;82;21176;-71
2021/03/08 00:28:14;;;;;;;39.40;18.42;;;;;;;0.69;74.06;100696.20;1740249;82;21183;-71
2021/03/08 00:30:41;;;;;;;42.90;19.05;;;;;;;0.71;74.12;100703.50;1740241;82;21617;-71
2021/03/08 00:33:08;;;;;;;34.27;14.07;;;;;;;0.71;74.20;100704.80;1740198;82;21135;-71
2021/03/08 00:35:34;;;;;;;25.15;12.43;;;;;;;0.71;74.27;100700.41;1740192;81;21163;-71
2021/03/08 00:38:00;;;;;;;24.63;12.63;;;;;;;0.71;74.35;100699.55;1740090;82;21600;-71
2021/03/08 00:40:27;;;;;;;43.00;18.02;;;;;;;0.71;74.41;100704.34;1740393;82;21269;-71
2021/03/08 00:42:53;;;;;;;21.40;10.65;;;;;;;0.73;74.49;100701.63;1740171;81;21640;-71
2021/03/08 00:45:21;;;;;;;20.10;10.25;;;;;;;0.74;74.53;100702.82;1739449;82;21116;-71
2021/03/08 00:47:47;;;;;;;24.07;11.50;;;;;;;0.73;74.59;100703.79;1740170;81;21182;-71
2021/03/08 00:50:20;;;;;;;23.42;12.73;;;;;;;0.74;74.64;100695.45;1739834;82;21126;-71
2021/03/08 00:52:46;;;;;;;20.82;12.80;;;;;;;0.73;74.72;100693.75;1739297;82;21683;-71
2021/03/08 00:55:13;;;;;;;22.13;11.73;;;;;;;0.73;74.78;100700.31;1739776;82;21175;-71
2021/03/08 00:57:40;;;;;;;23.75;12.20;;;;;;;0.74;74.85;100698.08;1740236;81;21179;-71
2021/03/08 01:00:12;;;;;;;22.95;12.05;;;;;;;0.76;74.92;100697.48;1740199;82;21608;-71
2021/03/08 01:02:38;;;;;;;23.15;11.08;;;;;;;0.77;74.96;100693.94;1723697;82;21131;-71
2021/03/08 01:05:06;;;;;;;21.02;10.00;;;;;;;0.75;75.00;100693.17;1739383;81;21607;-71
2021/03/08 01:07:33;;;;;;;27.48;13.48;;;;;;;0.76;75.05;100689.61;1740214;82;21188;-71
2021/03/08 01:09:59;;;;;;;18.87;11.83;;;;;;;0.76;75.09;100682.59;1740414;81;21152;-71
2021/03/08 01:12:25;;;;;;;19.35;10.85;;;;;;;0.78;75.15;100683.78;1740037;81;21175;-71
2021/03/08 01:14:52;;;;;;;17.98;9.48;;;;;;;0.82;75.19;100695.77;1740389;81;21135;-71
2021/03/08 01:17:18;;;;;;;22.07;11.00;;;;;;;0.84;75.25;100696.52;1740173;82;22164;-71
2021/03/08 01:19:45;;;;;;;40.03;15.93;;;;;;;0.85;75.29;100694.25;1740013;81;21135;-71
2021/03/08 01:22:11;;;;;;;26.73;15.70;;;;;;;0.91;75.35;100695.18;1740304;82;21167;-71
2021/03/08 01:24:37;;;;;;;30.43;14.73;;;;;;;0.92;75.40;100692.90;1740190;82;21199;-71
2021/03/08 01:27:05;;;;;;;23.77;11.55;;;;;;;0.92;75.46;100690.27;1740235;81;22470;-71
2021/03/08 01:29:31;;;;;;;22.02;11.38;;;;;;;0.90;75.51;100689.08;1740225;81;21582;-71
2021/03/08 01:31:57;;;;;;;29.42;13.10;;;;;;;0.86;75.53;100690.69;1740350;81;21243;-71
2021/03/08 01:34:24;;;;;;;27.48;12.45;;;;;;;0.83;75.57;100693.05;1740049;82;21164;-71
2021/03/08 01:36:50;;;;;;;37.93;15.18;;;;;;;0.83;75.62;100694.36;1740154;81;21152;-71
2021/03/08 01:39:16;;;;;;;28.90;15.53;;;;;;;0.85;75.66;100699.50;1740227;82;21180;-71
2021/03/08 01:41:43;;;;;;;42.75;17.23;;;;;;;0.92;75.69;100695.52;1740096;82;21248;-71
2021/03/08 01:44:09;;;;;;;36.20;15.23;;;;;;;0.95;75.71;100700.60;1740153;81;21593;-71
2021/03/08 01:46:36;;;;;;;34.50;15.18;;;;;;;0.97;75.76;100700.86;1740270;81;21176;-71
2021/03/08 01:49:04;;;;;;;35.52;15.13;;;;;;;1.00;75.80;100694.55;1740112;82;21152;-71
2021/03/08 01:51:30;;;;;;;31.62;14.80;;;;;;;0.99;75.83;100691.55;1740229;82;21123;-72
2021/03/08 01:53:56;;;;;;;42.15;17.42;;;;;;;1.00;75.87;100694.09;1740212;82;21613;-71
2021/03/08 01:56:23;;;;;;;36.50;14.75;;;;;;;1.04;75.90;100701.29;1739975;82;21218;-71
2021/03/08 01:58:49;;;;;;;20.88;12.30;;;;;;;1.04;75.91;100699.13;1740126;82;21136;-71
2021/03/08 02:01:15;;;;;;;24.20;12.25;;;;;;;1.05;75.93;100694.26;1740313;81;21613;-71
2021/03/08 02:03:41;;;;;;;24.72;13.25;;;;;;;1.04;75.97;100694.73;1740030;82;21172;-71
2021/03/08 02:06:08;;;;;;;28.07;12.98;;;;;;;1.05;75.98;100696.41;1734526;81;22101;-71
2021/03/08 02:08:35;;;;;;;24.75;12.05;;;;;;;1.05;76.01;100695.57;1731064;82;21129;-71
2021/03/08 02:11:02;;;;;;;15.95;9.88;;;;;;;1.04;76.02;100703.07;1731351;82;21180;-71
2021/03/08 02:14:03;;;;;;;23.30;9.75;;;;;;;1.02;76.04;100694.47;1731098;82;21673;-71
2021/03/08 02:16:40;;;;;;;17.30;10.08;;;;;;;1.03;76.02;100698.28;1731041;82;21185;-71
2021/03/08 02:19:30;;;;;;;23.50;10.35;;;;;;;1.03;76.02;100702.23;1731294;82;22043;-71
2021/03/08 02:22:34;;;;;;;20.80;10.13;;;;;;;1.04;76.03;100709.17;1730492;82;21588;-71
2021/03/08 02:25:14;;;;;;;24.23;12.58;;;;;;;1.06;76.07;100709.89;1731099;82;21222;-71
2021/03/08 02:27:55;;;;;;;24.87;13.40;;;;;;;1.05;76.12;100703.45;1731379;82;21468;-71
2021/03/08 02:30:37;;;;;;;26.17;14.83;;;;;;;1.04;76.16;100705.23;1729699;82;21152;-71
2021/03/08 02:33:06;;;;;;;28.60;14.53;;;;;;;1.04;76.21;100709.17;1731226;81;22062;-71
2021/03/08 02:35:35;;;;;;;29.72;16.05;;;;;;;1.02;76.20;100716.78;1731233;82;21179;-71
2021/03/08 02:38:05;;;;;;;28.07;15.68;;;;;;;1.02;76.21;100712.38;1731242;82;21180;-71
2021/03/08 02:40:36;;;;;;;27.75;13.80;;;;;;;1.00;76.22;100719.50;1710813;82;21164;-71
2021/03/08 02:43:06;;;;;;;22.62;12.37;;;;;;;0.99;76.23;100721.75;1731045;82;21173;-71
2021/03/08 02:45:32;;;;;;;29.35;12.63;;;;;;;0.97;76.23;100716.61;1731415;81;22099;-71
2021/03/08 02:47:58;;;;;;;24.12;12.37;;;;;;;0.99;76.24;100727.00;1710415;82;21175;-71
2021/03/08 02:50:27;;;;;;;23.20;11.97;;;;;;;0.98;76.26;100722.25;1731222;82;21151;-71
2021/03/08 02:53:00;;;;;;;29.72;13.05;;;;;;;0.97;76.28;100719.70;1710774;82;21141;-71
2021/03/08 02:55:38;;;;;;;31.68;15.03;;;;;;;0.96;76.31;100723.27;1731247;82;21140;-71
2021/03/08 02:58:06;;;;;;;18.75;12.13;;;;;;;0.96;76.34;100728.52;1730618;81;21291;-71
2021/03/08 03:00:32;;;;;;;37.05;15.00;;;;;;;0.98;76.38;100734.53;1710534;82;22084;-71
2021/03/08 03:02:59;;;;;;;32.20;15.23;;;;;;;0.97;76.40;100728.89;1710592;82;21188;-71
2021/03/08 03:05:25;;;;;;;28.52;14.78;;;;;;;0.98;76.46;100742.41;1731167;82;21598;-72
2021/03/08 03:07:51;;;;;;;28.30;14.07;;;;;;;0.96;76.48;100734.61;1731400;82;21159;-71
2021/03/08 03:10:18;;;;;;;25.88;12.80;;;;;;;0.93;76.52;100734.82;1731421;82;21206;-72
2021/03/08 03:12:44;;;;;;;24.37;13.10;;;;;;;0.93;76.54;100743.16;1731085;82;21562;-71
2021/03/08 03:15:11;;;;;;;28.47;15.32;;;;;;;0.93;76.54;100743.16;1731418;82;21174;-72
2021/03/08 03:17:38;;;;;;;30.05;13.05;;;;;;;0.95;76.58;100751.30;1730924;82;21212;-71
2021/03/08 03:20:11;;;;;;;21.52;12.05;;;;;;;0.98;76.61;100752.91;1731291;82;21168;-71
2021/03/08 03:22:38;;;;;;;23.47;11.50;;;;;;;0.99;76.62;100754.56;1731374;82;21194;-71
2021/03/08 03:25:05;;;;;;;21.90;12.25;;;;;;;0.96;76.66;100757.40;1731321;82;21168;-72
2021/03/08 03:27:32;;;;;;;26.62;11.48;;;;;;;0.94;76.71;100756.67;1731346;82;21180;-71
2021/03/08 03:29:58;;;;;;;30.40;14.53;;;;;;;0.89;76.72;100754.80;1731336;82;21145;-71
2021/03/08 03:32:24;;;;;;;30.10;14.43;;;;;;;0.87;76.75;100759.32;1710750;82;21184;-71
2021/03/08 03:34:51;;;;;;;27.13;15.03;;;;;;;0.85;76.78;100762.50;1731162;81;21613;-71
2021/03/08 03:37:20;;;;;;;25.15;13.95;;;;;;;0.82;76.81;100765.33;1731144;82;21228;-71
2021/03/08 03:39:48;;;;;;;22.82;12.78;;;;;;;0.79;76.86;100766.84;1730970;82;21152;-71
2021/03/08 03:42:17;;;;;;;26.57;11.93;;;;;;;0.77;76.87;100766.11;1731193;82;21117;-71
2021/03/08 03:44:43;;;;;;;18.93;9.57;;;;;;;0.77;76.91;100783.17;1731408;82;21196;-71
2021/03/08 03:47:11;;;;;;;32.73;15.08;;;;;;;0.75;76.89;100779.78;1730945;82;22120;-71
2021/03/08 03:49:38;;;;;;;28.23;13.65;;;;;;;0.77;76.91;100784.48;1731324;82;21175;-71
2021/03/08 03:52:05;;;;;;;34.15;14.00;;;;;;;0.79;76.91;100790.00;1731130;82;21128;-71
2021/03/08 03:54:32;;;;;;;28.47;13.35;;;;;;;0.80;76.96;100789.53;1731310;82;21209;-71
2021/03/08 03:57:02;;;;;;;33.95;15.93;;;;;;;0.77;76.97;100792.36;1731266;82;21631;-71
2021/03/08 03:59:33;;;;;;;34.30;17.40;;;;;;;0.77;77.00;100801.08;1731121;82;21216;-71
2021/03/08 04:02:03;;;;;;;32.73;16.32;;;;;;;0.79;77.04;100799.66;1731292;82;21586;-71
2021/03/08 04:04:37;;;;;;;27.45;13.38;;;;;;;0.77;77.06;100808.11;1731021;82;21161;-72
2021/03/08 04:07:05;;;;;;;19.60;10.63;;;;;;;0.75;77.07;100808.66;1731314;82;21633;-72
2021/03/08 04:09:31;;;;;;;21.85;10.50;;;;;;;0.71;77.09;100808.47;1731144;82;21191;-71
2021/03/08 04:11:59;;;;;;;18.98;10.82;;;;;;;0.66;77.10;100810.09;1731435;81;21609;-71
2021/03/08 04:14:25;;;;;;;16.05;9.10;;;;;;;0.64;77.13;100824.23;1731099;82;21192;-71
2021/03/08 04:16:57;;;;;;;18.45;10.18;;;;;;;0.61;77.17;100828.36;1731500;82;21141;-69
2021/03/08 04:19:29;;;;;;;18.57;10.68;;;;;;;0.61;77.19;100823.12;1731378;82;21201;-69
2021/03/08 04:22:01;;;;;;;24.40;10.70;;;;;;;0.60;77.21;100826.20;1731234;81;21156;-72
2021/03/08 04:24:28;;;;;;;20.27;11.45;;;;;;;0.60;77.22;100828.02;1731370;82;21215;-69
2021/03/08 04:26:55;;;;;;;24.90;11.57;;;;;;;0.58;77.23;100837.75;1710543;82;21204;-69
2021/03/08 04:29:22;;;;;;;21.33;11.48;;;;;;;0.59;77.24;100837.66;1731271;82;21176;-69
2021/03/08 04:31:48;;;;;;;22.13;12.20;;;;;;;0.59;77.24;100839.44;1731255;82;21167;-69
2021/03/08 04:34:14;;;;;;;21.10;10.68;;;;;;;0.57;77.23;100838.67;1730984;82;21164;-71
2021/03/08 04:36:41;;;;;;;21.45;10.38;;;;;;;0.54;77.22;100842.80;1710633;82;21845;-69
2021/03/08 04:39:10;;;;;;;29.32;12.70;;;;;;;0.49;77.19;100846.55;1731054;82;21180;-69
2021/03/08 04:41:37;;;;;;;22.32;10.38;;;;;;;0.43;77.19;100843.01;1731315;82;21205;-69
2021/03/08 04:44:04;;;;;;;26.55;11.68;;;;;;;0.44;77.20;100841.23;1731197;82;21196;-69
2021/03/08 04:46:31;;;;;;;28.75;11.55;;;;;;;0.44;77.22;100849.95;1731323;82;21180;-69
2021/03/08 04:48:59;;;;;;;19.77;12.15;;;;;;;0.42;77.23;100846.56;1731098;82;22056;-69
2021/03/08 04:51:25;;;;;;;24.02;10.32;;;;;;;0.40;77.24;100855.00;1731260;82;21181;-69
2021/03/08 04:53:52;;;;;;;22.77;10.80;;;;;;;0.37;77.25;100857.82;1731372;82;21604;-69
2021/03/08 04:56:19;;;;;;;24.57;11.57;;;;;;;0.32;77.25;100853.31;1731203;82;21131;-69
2021/03/08 04:58:45;;;;;;;26.93;14.25;;;;;;;0.29;77.24;100861.83;1731369;82;21176;-69
2021/03/08 05:01:11;;;;;;;27.85;14.75;;;;;;;0.26;77.24;100861.56;1731217;82;21205;-69
2021/03/08 05:03:38;;;;;;;102.70;39.10;;;;;;;0.23;77.23;100866.15;1731000;82;21330;-69
2021/03/08 05:06:05;;;;;;;33.42;14.55;;;;;;;0.21;77.22;100866.23;1676539;82;21196;-72
2021/03/08 05:08:32;;;;;;;23.67;12.33;;;;;;;0.19;77.21;100875.98;1731325;82;21551;-71
2021/03/08 05:10:58;;;;;;;26.70;12.07;;;;;;;0.20;77.21;100877.67;1710488;82;21196;-72
2021/03/08 05:13:24;;;;;;;119.08;39.13;;;;;;;0.19;77.22;100873.36;1731188;82;22075;-72
2021/03/08 05:15:53;;;;;;;101.50;36.88;;;;;;;0.21;77.25;100871.47;1731319;82;21168;-71
2021/03/08 05:18:21;;;;;;;75.40;28.38;;;;;;;0.23;77.23;100877.48;1731080;82;21120;-71
2021/03/08 05:20:48;;;;;;;50.90;22.05;;;;;;;0.22;77.25;100888.05;1731092;82;21668;-71
2021/03/08 05:23:15;;;;;;;58.55;24.10;;;;;;;0.12;77.27;100882.53;1731229;82;21184;-71
2021/03/08 05:25:41;;;;;;;35.80;17.02;;;;;;;0.08;77.29;100890.20;1731200;82;21203;-71
2021/03/08 05:28:09;;;;;;;34.38;14.87;;;;;;;0.05;77.31;100891.69;1731249;82;21579;-71
2021/03/08 05:30:35;;;;;;;27.87;12.65;;;;;;;-0.01;77.31;100897.31;1731125;81;21125;-72
2021/03/08 05:33:18;;;;;;;23.38;11.65;;;;;;;-0.07;77.30;100901.12;1731330;82;21157;-72
2021/03/08 05:35:44;;;;;;;17.55;11.20;;;;;;;-0.14;77.29;100908.14;1731312;81;21578;-72
2021/03/08 05:38:10;;;;;;;22.85;9.33;;;;;;;-0.21;77.28;100918.61;1731183;82;21214;-72
2021/03/08 05:40:51;;;;;;;23.10;9.93;;;;;;;-0.27;77.33;100915.01;1731006;82;21605;-71
2021/03/08 05:43:17;;;;;;;23.10;10.60;;;;;;;-0.30;77.37;100920.42;1711262;82;21653;-69
2021/03/08 05:45:49;;;;;;;23.30;11.28;;;;;;;-0.36;77.40;100926.88;1731229;81;21157;-69
2021/03/08 05:48:22;;;;;;;23.22;11.18;;;;;;;-0.42;77.42;100931.14;1730971;82;21168;-70
2021/03/08 05:51:03;;;;;;;24.45;11.68;;;;;;;-0.49;77.44;100927.17;1731157;82;21264;-70
2021/03/08 05:54:02;;;;;;;24.87;11.18;;;;;;;-0.55;77.46;100928.37;1730256;82;21602;-70
2021/03/08 05:56:55;;;;;;;27.02;12.58;;;;;;;-0.58;77.50;100930.33;1731232;81;21180;-70
2021/03/08 05:59:50;;;;;;;30.52;14.58;;;;;;;-0.58;77.52;100933.80;1731349;81;21172;-70
2021/03/08 06:02:56;;;;;;;109.63;33.35;;;;;;;-0.62;77.53;100929.66;1730997;82;21553;-70
2021/03/08 06:06:04;;;;;;;149.27;48.17;;;;;;;-0.61;77.57;100935.28;1731250;82;22074;-70
2021/03/08 06:09:09;;;;;;;148.40;47.65;;;;;;;-0.65;77.59;100942.08;1731263;82;21149;-71
2021/03/08 06:11:36;;;;;;;135.60;46.58;;;;;;;-0.68;77.64;100944.41;1731269;82;21200;-71
2021/03/08 06:14:02;;;;;;;118.30;42.23;;;;;;;-0.68;77.70;100948.34;1731056;82;21180;-71
2021/03/08 06:16:34;;;;;;;122.53;45.28;;;;;;;-0.57;77.69;100960.38;1731261;82;21125;-70
2021/03/08 06:19:04;;;;;;;108.85;45.45;;;;;;;-0.20;77.52;100971.38;1731168;82;21151;-71
2021/03/08 06:21:35;;;;;;;71.40;30.92;;;;;;;-0.13;77.46;100971.41;1731290;82;21141;-71
2021/03/08 06:24:05;;;;;;;68.72;28.30;;;;;;;-0.11;77.48;100973.03;1713936;82;21192;-71
2021/03/08 06:26:32;;;;;;;58.42;27.80;;;;;;;0.02;77.50;100977.08;1683515;82;21140;-72
2021/03/08 06:28:59;;;;;;;51.45;23.75;;;;;;;0.20;77.50;100978.64;1702000;84;21168;-71
2021/03/08 06:31:28;;;;;;;53.60;26.55;;;;;;;0.38;77.51;100985.43;1701625;84;21218;-71
2021/03/08 06:33:55;;;;;;;51.73;23.38;;;;;;;0.48;77.57;100989.66;1701922;84;21243;-71
2021/03/08 06:36:24;;;;;;;59.38;27.17;;;;;;;0.49;77.57;100990.04;1701782;84;21176;-71
2021/03/08 06:38:50;;;;;;;88.37;33.88;;;;;;;0.61;77.60;100997.62;1701921;84;21594;-71
2021/03/08 06:41:17;;;;;;;65.25;25.50;;;;;;;0.74;77.57;100999.91;1722361;83;21163;-71
2021/03/08 06:43:44;;;;;;;59.98;22.32;;;;;;;0.87;77.54;100998.22;1722441;83;21269;-72
2021/03/08 06:46:13;;;;;;;55.58;22.62;;;;;;;0.95;77.56;101005.17;1722351;83;21151;-72
2021/03/08 06:48:39;;;;;;;34.78;16.67;;;;;;;1.04;77.53;101009.84;1722385;83;21143;-72
2021/03/08 06:51:14;;;;;;;36.30;17.40;;;;;;;1.15;77.50;101012.66;1722358;83;21124;-72
2021/03/08 06:53:41;;;;;;;33.98;16.05;;;;;;;1.11;77.49;101016.87;1722434;83;21596;-72
2021/03/08 06:56:25;;;;;;;37.08;18.52;;;;;;;1.17;77.43;101023.89;1722182;83;21879;-71
2021/03/08 06:59:13;;;;;;;33.28;17.82;;;;;;;1.31;77.42;101021.72;1722319;83;21176;-72
2021/03/08 07:01:41;;;;;;;36.48;20.27;;;;;;;1.51;77.31;101023.47;1722055;83;21147;-72
2021/03/08 07:04:12;;;;;;;28.62;15.60;;;;;;;1.64;77.20;101030.59;1722376;83;21183;-72
2021/03/08 07:06:38;;;;;;;29.57;14.40;;;;;;;1.78;77.12;101031.86;1722221;81;21139;-71
2021/03/08 07:09:11;;;;;;;28.20;15.53;;;;;;;1.98;77.05;101033.57;1722250;83;22128;-71
2021/03/08 07:11:37;;;;;;;25.20;14.73;;;;;;;2.08;76.95;101038.22;1722396;82;21187;-71
2021/03/08 07:14:21;;;;;;;34.48;17.23;;;;;;;2.17;76.82;101043.75;1722449;83;21164;-71
2021/03/08 07:16:47;;;;;;;48.30;20.40;;;;;;;2.29;76.73;101049.50;1722544;83;21144;-71
2021/03/08 07:19:14;;;;;;;33.63;17.02;;;;;;;2.36;76.66;101049.47;1722490;83;21125;-71
2021/03/08 07:21:40;;;;;;;24.00;11.15;;;;;;;2.44;76.59;101047.18;1722509;83;21199;-72
2021/03/08 07:24:12;;;;;;;32.15;14.73;;;;;;;2.57;76.48;101049.82;1722456;82;21176;-71
2021/03/08 07:26:55;;;;;;;29.42;12.98;;;;;;;2.65;76.35;101051.95;1722457;83;21585;-71
2021/03/08 07:29:23;;;;;;;25.70;11.97;;;;;;;2.70;76.12;101054.66;1694254;83;21167;-71
2021/03/08 07:31:51;;;;;;;21.23;10.28;;;;;;;2.82;76.00;101056.91;1719356;81;21131;-72
2021/03/08 07:34:18;;;;;;;18.55;9.10;;;;;;;2.90;75.88;101053.28;1716605;81;21205;-72
2021/03/08 07:37:01;;;;;;;22.58;12.65;;;;;;;2.83;75.76;101056.81;1733081;82;21209;-71
2021/03/08 07:39:27;;;;;;;24.67;11.40;;;;;;;2.85;75.67;101062.00;1732430;82;21113;-72
2021/03/08 07:41:58;;;;;;;18.73;9.55;;;;;;;2.90;75.42;101066.45;1733494;82;21150;-71
2021/03/08 07:44:28;;;;;;;21.37;8.80;;;;;;;2.88;75.17;101063.09;1733436;81;21152;-71
2021/03/08 07:46:55;;;;;;;;;;;;;;;2.87;74.99;101065.35;1732407;82;21214;-72
2021/03/08 07:52:07;;;;;;;20.90;9.88;;;;;;;2.75;74.54;101063.53;1803776;78;22158;-72
2021/03/08 07:54:58;;;;;;;24.87;10.80;;;;;;;2.73;74.38;101068.92;1779979;79;21184;-72
2021/03/08 07:57:26;;;;;;;22.25;8.80;;;;;;;2.65;74.24;101071.69;1764520;80;21327;-71
2021/03/08 07:59:52;;;;;;;15.13;8.13;;;;;;;2.69;74.09;101074.49;1765085;81;21184;-71
2021/03/08 08:02:19;;;;;;;22.05;8.88;;;;;;;2.66;73.87;101072.07;1764912;80;21164;-71
2021/03/08 08:04:46;;;;;;;21.23;9.30;;;;;;;2.74;73.67;101069.77;1788131;78;21158;-71
2021/03/08 08:07:13;;;;;;;20.82;9.58;;;;;;;2.85;73.49;101076.48;1771266;79;21630;-72
2021/03/08 08:09:44;;;;;;;22.65;8.93;;;;;;;2.93;73.32;101076.31;1773877;79;21884;-71
2021/03/08 08:12:13;;;;;;;23.73;8.65;;;;;;;2.94;73.11;101082.42;1777243;79;21128;-71
2021/03/08 08:14:40;;;;;;;24.30;10.00;;;;;;;3.01;72.93;101081.91;1776543;78;21182;-72
2021/03/08 08:17:08;;;;;;;21.85;7.95;;;;;;;3.06;72.68;101086.88;1776453;79;21660;-72
2021/03/08 08:19:39;;;;;;;15.93;6.40;;;;;;;3.03;72.43;101087.05;1776278;79;21158;-72
2021/03/08 08:22:08;;;;;;;15.85;6.87;;;;;;;2.95;72.18;101084.97;1777261;79;22127;-72
2021/03/08 08:24:35;;;;;;;9.70;4.53;;;;;;;2.96;71.94;101089.27;1769539;80;21187;-71
2021/03/08 08:27:03;;;;;;;10.78;6.28;;;;;;;3.03;71.67;101089.69;1761214;79;21136;-71
2021/03/08 08:29:30;;;;;;;12.20;5.17;;;;;;;3.01;71.41;101086.33;1755058;81;21174;-71
2021/03/08 08:32:02;;;;;;;12.45;5.87;;;;;;;3.08;71.16;101092.86;1765444;80;21158;-71
2021/03/08 08:34:34;;;;;;;12.30;4.15;;;;;;;3.17;70.80;101097.48;1764224;80;21739;-71
2021/03/08 08:37:17;;;;;;;10.03;4.78;;;;;;;3.08;70.35;101094.66;1768262;80;21223;-72
2021/03/08 08:40:01;;;;;;;26.68;9.38;;;;;;;3.08;70.09;101095.50;1769320;80;21148;-71
2021/03/08 08:42:30;;;;;;;18.70;8.85;;;;;;;3.22;69.76;101096.72;1767657;80;21216;-71
2021/03/08 08:44:58;;;;;;;18.95;9.88;;;;;;;3.27;69.50;101090.63;1762558;80;21203;-71
2021/03/08 08:47:29;;;;;;;15.50;7.90;;;;;;;3.37;69.33;101087.75;1760648;80;21255;-71
2021/03/08 08:50:07;;;;;;;16.05;7.80;;;;;;;3.43;69.11;101095.69;1725531;82;21183;-71
2021/03/08 08:52:56;;;;;;;14.98;7.58;;;;;;;3.56;69.00;101095.66;1772408;79;21758;-71
2021/03/08 08:55:36;;;;;;;5.65;3.35;;;;;;;3.68;68.72;101098.30;1770551;79;21215;-71
2021/03/08 08:58:23;;;;;;;9.60;3.17;;;;;;;3.66;68.37;101097.54;1771675;78;21545;-72
2021/03/08 09:01:16;;;;;;;10.68;4.15;;;;;;;3.61;68.04;101101.00;1773814;78;22146;-72
2021/03/08 09:04:01;;;;;;;11.95;4.85;;;;;;;3.60;67.67;101106.37;1771174;80;21175;-71
2021/03/08 09:06:54;;;;;;;8.10;3.58;;;;;;;3.49;67.09;101105.80;1769623;80;21151;-71
2021/03/08 09:09:36;;;;;;;7.83;4.58;;;;;;;3.61;66.68;101106.74;1775433;80;21160;-72
2021/03/08 09:12:06;;;;;;;10.95;4.10;;;;;;;3.50;66.07;101107.50;1770355;79;21156;-72
2021/03/08 09:14:46;;;;;;;12.40;4.87;;;;;;;3.50;65.72;101103.07;1769575;80;21316;-72
2021/03/08 09:17:25;;;;;;;13.55;4.97;;;;;;;3.53;65.41;101108.13;1768115;79;21675;-72
2021/03/08 09:20:01;;;;;;;10.35;5.20;;;;;;;3.69;65.16;101104.41;1763953;80;21585;-72
2021/03/08 09:22:32;;;;;;;11.60;5.50;;;;;;;3.76;64.84;101105.20;1767831;80;21218;-72
2021/03/08 09:25:15;;;;;;;12.60;5.47;;;;;;;3.92;64.60;101106.25;1772786;79;21608;-72
2021/03/08 09:28:00;;;;;;;57.65;8.93;;;;;;;4.04;64.31;101110.66;1729662;81;21649;-72
2021/03/08 09:30:36;;;;;;;9.00;3.65;;;;;;;4.05;64.04;101111.00;1723820;82;21222;-72
2021/03/08 09:33:10;;;;;;;9.15;3.77;;;;;;;4.03;63.67;101110.28;1715234;82;21578;-72
2021/03/08 09:35:47;;;;;;;9.23;4.78;;;;;;;4.18;63.50;101118.41;1754372;80;21144;-71
2021/03/08 09:38:19;;;;;;;14.28;6.25;;;;;;;4.31;63.19;101116.56;1775471;80;21628;-72
2021/03/08 09:40:49;;;;;;;12.80;6.80;;;;;;;4.12;62.83;101128.58;1772015;80;21268;-71
2021/03/08 09:43:27;;;;;;;8.80;3.90;;;;;;;3.84;62.56;101128.37;1737922;81;21228;-71
2021/03/08 09:46:01;;;;;;;9.65;4.37;;;;;;;3.64;62.24;101131.10;1767351;79;21129;-72
2021/03/08 09:48:29;;;;;;;10.68;3.98;;;;;;;3.75;62.07;101131.67;1769290;80;21214;-72
2021/03/08 09:51:07;;;;;;;4.62;2.47;;;;;;;3.90;61.88;101124.00;1774380;80;21176;-72
2021/03/08 09:53:35;;;;;;;8.20;2.67;;;;;;;4.13;61.68;101125.81;1773464;79;21214;-72
2021/03/08 09:56:14;;;;;;;4.25;2.00;;;;;;;4.05;61.25;101127.33;1774782;80;21238;-72
2021/03/08 09:58:40;;;;;;;6.42;2.00;;;;;;;3.96;60.84;101132.78;1770167;80;21246;-71
2021/03/08 10:01:19;;;;;;;4.67;2.20;;;;;;;3.87;60.28;101144.00;1768400;78;21210;-71
2021/03/08 10:03:46;;;;;;;16.60;5.40;;;;;;;3.57;59.79;101140.39;1736397;81;21128;-72
2021/03/08 10:06:31;;;;;;;5.03;2.67;;;;;;;3.43;59.54;101146.63;1773987;80;22212;-72
2021/03/08 10:08:59;;;;;;;6.28;1.70;;;;;;;3.48;59.29;101145.81;1772067;80;21191;-72
2021/03/08 10:11:29;;;;;;;3.50;1.40;;;;;;;3.70;58.93;101143.00;1774007;80;21148;-71
2021/03/08 10:13:56;;;;;;;5.15;2.00;;;;;;;3.73;58.42;101151.55;1777405;80;21552;-72
2021/03/08 10:16:28;;;;;;;5.15;2.37;;;;;;;3.66;58.00;101145.02;1773452;79;21727;-72
2021/03/08 10:18:55;;;;;;;14.95;4.15;;;;;;;3.56;57.69;101145.77;1774454;79;21265;-72
2021/03/08 10:21:21;;;;;;;5.92;2.87;;;;;;;3.81;57.51;101144.41;1773597;80;21543;-72
2021/03/08 10:23:48;;;;;;;9.23;2.60;;;;;;;4.15;57.32;101143.69;1771302;80;21123;-72
2021/03/08 10:26:16;;;;;;;13.62;5.72;;;;;;;4.41;57.01;101145.29;1771316;80;21175;-71
2021/03/08 10:28:50;;;;;;;18.67;7.20;;;;;;;4.62;56.78;101145.98;1770122;79;21588;-72
2021/03/08 10:31:28;;;;;;;11.05;6.00;;;;;;;4.53;56.43;101148.37;1741204;80;21601;-72
2021/03/08 10:33:57;;;;;;;10.30;4.95;;;;;;;4.37;56.19;101149.10;1774157;80;21144;-72
2021/03/08 10:36:26;;;;;;;24.43;8.93;;;;;;;4.21;56.01;101144.59;1745327;80;21179;-72
2021/03/08 10:38:59;;;;;;;20.30;11.78;;;;;;;4.06;55.85;101143.04;1776534;80;21148;-72
2021/03/08 10:41:27;;;;;;;22.60;11.60;;;;;;;3.91;55.52;101151.57;1774324;79;21590;-72
2021/03/08 10:43:59;;;;;;;28.87;9.68;;;;;;;3.81;55.31;101156.29;1734533;79;22175;-72
2021/03/08 10:46:37;;;;;;;27.50;10.00;;;;;;;3.78;55.15;101159.14;1777168;80;21140;-72
2021/03/08 10:49:09;;;;;;;13.18;5.97;;;;;;;3.74;55.00;101156.34;1775687;80;21116;-72
2021/03/08 10:51:40;;;;;;;7.00;3.47;;;;;;;3.75;54.84;101156.73;1756907;80;21142;-72
2021/03/08 10:54:12;;;;;;;12.30;4.45;;;;;;;3.83;54.68;101149.97;1747524;81;21159;-73
2021/03/08 10:56:40;;;;;;;8.05;3.45;;;;;;;4.11;54.58;101156.77;1732324;81;21230;-73
2021/03/08 10:59:26;;;;;;;10.03;4.87;;;;;;;4.45;54.42;101155.16;1681713;84;21193;-72
2021/03/08 11:02:12;;;;;;;9.13;3.70;;;;;;;4.63;54.02;101157.77;1738614;81;21759;-72
2021/03/08 11:04:38;;;;;;;9.20;2.33;;;;;;;4.78;53.64;101163.24;1707603;82;21223;-72
2021/03/08 11:07:06;;;;;;;5.45;2.40;;;;;;;4.57;53.21;101161.34;1705889;82;21496;-72
2021/03/08 11:09:35;;;;;;;18.42;5.78;;;;;;;4.41;52.97;101166.41;1723285;82;22180;-72
2021/03/08 11:12:01;;;;;;;8.55;3.80;;;;;;;4.27;52.73;101159.13;1697893;84;21173;-72
2021/03/08 11:14:27;;;;;;;12.50;4.55;;;;;;;4.19;52.57;101154.86;1734904;81;21143;-72
2021/03/08 11:16:55;;;;;;;33.65;14.28;;;;;;;4.12;52.49;101155.79;1715677;81;21151;-72
2021/03/08 11:19:27;;;;;;;12.25;6.33;;;;;;;4.17;52.43;101160.27;1709053;83;21145;-72
2021/03/08 11:22:07;;;;;;;18.87;7.75;;;;;;;4.34;52.40;101162.53;1701566;83;21238;-71
2021/03/08 11:24:48;;;;;;;4.58;2.15;;;;;;;4.54;52.12;101156.63;1709059;82;21249;-72
2021/03/08 11:27:26;;;;;;;6.90;3.00;;;;;;;4.77;51.92;101159.37;1734567;81;21200;-72
2021/03/08 11:30:10;;;;;;;7.53;3.25;;;;;;;4.90;51.77;101153.06;1741984;81;21586;-71
2021/03/08 11:32:39;;;;;;;10.40;4.40;;;;;;;4.87;51.47;101159.90;1700672;82;21617;-72
2021/03/08 11:35:18;;;;;;;4.03;2.00;;;;;;;4.59;51.08;101150.17;1715825;82;21545;-72
2021/03/08 11:38:09;;;;;;;12.10;4.17;;;;;;;4.29;50.52;101158.05;1810585;78;22401;-72
2021/03/08 11:40:38;;;;;;;17.62;5.33;;;;;;;4.03;50.23;101157.31;1778983;79;21147;-72